Time;durP1;ratioP1;P1;durP2;ratioP2;P2;SDS_P1;SDS_P2;PMS_P1;PMS_P2;Temp;Humidity;BMP_temperature;BMP_pressure;BME280_temperature;BME280_humidity;BME280_pressure;Samples;Min_cycle;Max_cycle;Signal;HPM_P1;HPM_P2
2022/06/30 05:02:15;;;;;;;12.02;8.07;;;19.40;99.90;;;;;;5467378;23;20048;-71
2022/06/30 05:04:43;;;;;;;11.60;8.30;;;19.40;99.90;;;;;;4940141;29;20036;-70
2022/06/30 05:07:10;;;;;;;12.10;7.63;;;19.40;99.90;;;;;;4944962;29;20024;-73
2022/06/30 05:09:36;;;;;;;11.70;8.50;;;19.40;99.90;;;;;;4927747;29;20256;-78
2022/06/30 05:12:02;;;;;;;10.25;8.00;;;19.50;99.90;;;;;;4944600;29;20027;-74
2022/06/30 05:14:28;;;;;;;10.43;7.25;;;19.60;99.90;;;;;;4945333;29;20035;-75
2022/06/30 05:16:57;;;;;;;11.80;7.93;;;19.60;99.90;;;;;;4946504;29;20118;-84
2022/06/30 05:19:28;;;;;;;9.27;7.50;;;19.70;99.90;;;;;;4913269;29;20189;-76
2022/06/30 05:21:54;;;;;;;11.82;7.28;;;19.80;99.90;;;;;;4945336;29;20087;-72
2022/06/30 05:27:04;;;;;;;11.77;7.18;;;20.10;99.90;;;;;;4948304;29;20062;-72
2022/06/30 05:29:30;;;;;;;10.93;7.47;;;20.20;99.90;;;;;;4948587;29;20329;-72
2022/06/30 05:31:56;;;;;;;11.07;6.47;;;20.40;99.90;;;;;;4947771;29;20046;-72
2022/06/30 05:34:24;;;;;;;12.15;7.18;;;20.50;99.90;;;;;;4948726;29;20036;-73
2022/06/30 05:36:50;;;;;;;11.68;6.55;;;20.50;99.90;;;;;;4948096;29;20043;-73
2022/06/30 05:39:17;;;;;;;11.02;6.82;;;20.60;99.90;;;;;;4948533;29;20034;-72
2022/06/30 05:41:43;;;;;;;9.18;6.70;;;20.70;99.90;;;;;;4949018;29;20362;-72
2022/06/30 05:44:09;;;;;;;7.85;6.30;;;20.80;99.90;;;;;;4931756;29;20087;-75
2022/06/30 05:46:36;;;;;;;9.77;6.60;;;20.80;99.90;;;;;;4948545;29;20262;-74
2022/06/30 05:49:08;;;;;;;8.85;6.70;;;20.90;99.90;;;;;;4948317;29;20050;-74
2022/06/30 05:51:34;;;;;;;10.15;6.25;;;20.90;99.90;;;;;;4949103;29;20027;-72
2022/06/30 05:54:11;;;;;;;9.13;7.28;;;21.00;99.90;;;;;;4931650;29;20087;-73
2022/06/30 05:56:37;;;;;;;10.73;6.63;;;21.10;99.90;;;;;;4948784;29;20302;-73
2022/06/30 05:59:03;;;;;;;12.70;6.97;;;21.20;99.90;;;;;;4948658;29;20036;-72
2022/06/30 06:01:29;;;;;;;10.40;6.18;;;21.40;99.90;;;;;;4944744;29;20062;-74
2022/06/30 06:03:54;;;;;;;8.90;6.47;;;21.50;99.90;;;;;;4928774;29;20035;-72
2022/06/30 06:06:20;;;;;;;12.93;7.53;;;21.70;99.90;;;;;;4894144;29;20040;-72
2022/06/30 06:08:49;;;;;;;14.18;8.40;;;21.70;99.90;;;;;;4911221;29;20302;-73
2022/06/30 06:11:18;;;;;;;11.35;7.50;;;21.90;99.90;;;;;;4910232;29;20028;-73
2022/06/30 06:13:44;;;;;;;13.38;7.03;;;21.90;99.90;;;;;;4910521;29;20375;-70
2022/06/30 06:16:17;;;;;;;11.93;6.85;;;22.00;99.90;;;;;;4908897;29;20107;-73
2022/06/30 06:18:43;;;;;;;9.35;7.13;;;22.10;99.90;;;;;;4910865;29;20048;-70
2022/06/30 06:21:09;;;;;;;12.23;6.70;;;22.20;99.90;;;;;;4910149;29;20126;-75
2022/06/30 06:23:43;;;;;;;11.18;7.30;;;22.30;99.90;;;;;;4878344;29;20029;-74
2022/06/30 06:26:10;;;;;;;11.10;6.78;;;22.30;99.90;;;;;;4892798;29;20167;-74
2022/06/30 06:31:23;;;;;;;10.18;5.53;;;22.60;99.90;;;;;;4908746;29;20036;-69
2022/06/30 06:33:49;;;;;;;10.77;5.95;;;22.70;99.90;;;;;;4917132;29;20075;-71
2022/06/30 06:36:15;;;;;;;9.82;6.13;;;22.90;99.90;;;;;;4900167;29;20142;-71
2022/06/30 06:38:41;;;;;;;9.32;6.22;;;23.00;99.90;;;;;;4889346;29;20020;-72
2022/06/30 06:41:08;;;;;;;8.57;6.07;;;23.10;99.90;;;;;;4889429;29;20332;-72
2022/06/30 06:43:34;;;;;;;9.85;6.35;;;23.20;99.90;;;;;;4889574;29;20323;-71
2022/06/30 06:46:00;;;;;;;9.48;5.97;;;23.30;99.90;;;;;;4888506;29;20120;-73
2022/06/30 06:48:25;;;;;;;8.27;5.65;;;23.40;99.90;;;;;;4889454;29;20044;-71
2022/06/30 06:50:51;;;;;;;8.45;5.30;;;23.50;99.90;;;;;;4888877;29;20025;-70
2022/06/30 06:53:17;;;;;;;11.13;5.90;;;23.70;99.90;;;;;;4889132;29;20033;-70
2022/06/30 06:55:43;;;;;;;8.65;5.28;;;23.90;99.20;;;;;;4888980;29;20041;-69
2022/06/30 06:58:10;;;;;;;8.70;5.03;;;24.00;99.00;;;;;;4888542;29;20093;-71
2022/06/30 07:00:36;;;;;;;9.75;5.40;;;24.10;98.50;;;;;;4871860;29;20331;-70
2022/06/30 07:03:02;;;;;;;6.00;4.68;;;24.10;98.40;;;;;;4888551;29;20089;-70
2022/06/30 07:05:28;;;;;;;12.10;5.90;;;24.30;98.10;;;;;;4888824;29;20281;-70
2022/06/30 07:07:58;;;;;;;8.80;5.10;;;24.40;97.70;;;;;;4889099;29;20033;-69
2022/06/30 07:10:25;;;;;;;10.60;5.20;;;24.50;97.40;;;;;;4889024;29;20029;-70
2022/06/30 07:12:51;;;;;;;12.15;4.90;;;24.60;97.20;;;;;;4888504;29;20045;-71
2022/06/30 07:15:16;;;;;;;6.53;5.10;;;24.70;97.10;;;;;;4888269;29;20053;-72
2022/06/30 07:17:42;;;;;;;9.07;5.18;;;24.80;96.70;;;;;;4922596;29;20084;-71
2022/06/30 07:20:09;;;;;;;11.50;4.70;;;25.00;96.40;;;;;;4925971;29;20051;-71
2022/06/30 07:22:34;;;;;;;10.40;5.95;;;25.00;96.30;;;;;;4909664;29;20020;-71
2022/06/30 07:25:07;;;;;;;7.35;4.63;;;25.10;95.90;;;;;;4909210;29;20075;-72
2022/06/30 07:27:33;;;;;;;9.75;5.40;;;25.30;95.70;;;;;;4926620;29;20031;-73
2022/06/30 07:29:59;;;;;;;8.38;4.95;;;25.40;95.50;;;;;;4925786;29;20024;-73
2022/06/30 07:32:25;;;;;;;10.10;5.28;;;25.40;95.40;;;;;;4914713;29;20084;-73
2022/06/30 07:34:50;;;;;;;8.68;4.65;;;25.40;95.20;;;;;;4907460;29;20043;-73
2022/06/30 07:37:16;;;;;;;8.25;4.60;;;25.50;95.20;;;;;;4907033;29;20044;-73
2022/06/30 07:39:42;;;;;;;6.13;4.47;;;25.60;94.80;;;;;;4910490;29;20032;-72
2022/06/30 07:42:08;;;;;;;7.38;4.70;;;25.60;94.60;;;;;;4925766;29;20136;-70
2022/06/30 07:44:34;;;;;;;6.57;4.10;;;25.70;94.30;;;;;;4926261;29;20039;-72
2022/06/30 07:47:00;;;;;;;6.43;4.10;;;25.90;93.80;;;;;;4924977;29;20051;-73
2022/06/30 07:49:34;;;;;;;5.93;4.35;;;26.00;93.30;;;;;;4926359;29;20039;-73
2022/06/30 07:52:00;;;;;;;9.27;4.30;;;25.90;92.80;;;;;;4909695;29;20398;-72
2022/06/30 07:54:26;;;;;;;7.88;4.25;;;25.80;92.90;;;;;;4907143;29;20032;-73
2022/06/30 07:56:58;;;;;;;6.70;4.45;;;26.10;93.20;;;;;;4906187;29;20056;-74
2022/06/30 07:59:23;;;;;;;9.45;4.13;;;26.10;92.80;;;;;;4907227;29;20088;-73
2022/06/30 08:01:51;;;;;;;5.43;4.05;;;26.10;93.00;;;;;;4889055;29;20052;-74
2022/06/30 08:04:17;;;;;;;6.47;4.20;;;26.10;93.10;;;;;;4905915;29;20031;-74
2022/06/30 08:06:44;;;;;;;6.57;4.18;;;26.20;93.00;;;;;;4889438;29;20037;-75
2022/06/30 08:09:10;;;;;;;7.60;4.47;;;26.30;92.90;;;;;;4906375;29;20029;-75
2022/06/30 08:11:38;;;;;;;8.27;4.40;;;26.30;92.80;;;;;;4906531;29;20024;-77
2022/06/30 08:14:04;;;;;;;5.68;4.32;;;26.50;92.90;;;;;;4906003;29;20044;-71
2022/06/30 08:16:30;;;;;;;8.90;4.55;;;26.50;92.80;;;;;;4905934;29;20052;-70
2022/06/30 08:18:56;;;;;;;10.10;5.38;;;26.50;92.70;;;;;;4906226;29;20037;-70
2022/06/30 08:21:22;;;;;;;7.03;5.07;;;26.50;92.60;;;;;;4906831;29;20068;-70
2022/06/30 08:23:47;;;;;;;8.52;5.03;;;26.40;93.00;;;;;;4906265;29;20108;-73
2022/06/30 08:26:13;;;;;;;9.35;5.38;;;26.50;93.20;;;;;;4906095;29;20049;-72
2022/06/30 08:28:39;;;;;;;7.03;4.40;;;26.80;93.00;;;;;;4889375;29;20386;-72
2022/06/30 08:31:05;;;;;;;6.88;5.03;;;26.80;92.50;;;;;;4905217;29;20048;-71
2022/06/30 08:33:30;;;;;;;7.68;4.50;;;26.80;92.50;;;;;;4889837;29;20043;-73
2022/06/30 08:35:57;;;;;;;8.95;4.60;;;26.90;92.40;;;;;;4905742;29;20047;-71
2022/06/30 08:38:22;;;;;;;12.75;4.75;;;27.00;92.00;;;;;;4906077;29;20035;-72
2022/06/30 08:43:33;;;;;;;6.93;3.80;;;27.20;90.40;;;;;;4925323;29;20034;-72
2022/06/30 08:46:00;;;;;;;8.60;4.03;;;27.30;90.30;;;;;;4924163;29;20055;-72
2022/06/30 08:48:28;;;;;;;9.32;4.43;;;27.40;90.90;;;;;;4925433;29;20036;-70
2022/06/30 08:51:15;;;;;;;8.30;4.82;;;27.60;91.20;;;;;;4926449;29;20036;-72
2022/06/30 08:54:01;;;;;;;5.97;4.30;;;27.70;91.20;;;;;;4926460;29;20321;-71
2022/06/30 08:56:32;;;;;;;9.80;4.30;;;27.70;90.70;;;;;;4925141;29;20048;-71
2022/06/30 08:58:58;;;;;;;8.43;4.63;;;27.80;90.60;;;;;;4906456;29;20036;-71
2022/06/30 09:01:28;;;;;;;6.53;4.20;;;27.90;90.60;;;;;;4905593;29;20121;-72
2022/06/30 09:03:55;;;;;;;6.55;4.05;;;28.00;90.30;;;;;;4906317;29;20060;-72
2022/06/30 09:06:21;;;;;;;6.25;4.15;;;28.10;89.60;;;;;;4906093;29;20124;-72
2022/06/30 09:08:49;;;;;;;5.47;3.80;;;28.10;89.60;;;;;;4906290;29;20226;-71
2022/06/30 09:11:15;;;;;;;6.97;4.07;;;28.20;88.60;;;;;;4905947;29;20272;-71
2022/06/30 09:13:44;;;;;;;5.72;3.33;;;28.20;88.10;;;;;;4905856;29;20033;-72
2022/06/30 09:16:11;;;;;;;7.88;3.72;;;28.20;88.20;;;;;;4904812;29;20466;-73
2022/06/30 09:18:38;;;;;;;8.55;3.58;;;28.20;86.40;;;;;;4905763;29;20188;-72
2022/06/30 09:21:14;;;;;;;5.28;3.03;;;28.30;85.20;;;;;;4905678;29;20060;-72
2022/06/30 09:23:42;;;;;;;5.03;2.92;;;28.60;84.60;;;;;;4905920;29;20095;-73
2022/06/30 09:26:09;;;;;;;4.30;3.30;;;28.70;82.70;;;;;;4904977;29;20088;-72
2022/06/30 09:28:46;;;;;;;6.57;3.30;;;28.70;82.90;;;;;;4905923;29;20129;-73
2022/06/30 09:31:14;;;;;;;6.82;3.65;;;29.00;82.60;;;;;;4904372;29;20045;-71
2022/06/30 09:33:44;;;;;;;7.10;3.33;;;29.20;81.50;;;;;;4905587;29;20128;-74
2022/06/30 09:36:28;;;;;;;5.20;3.03;;;29.40;82.10;;;;;;4904937;29;20042;-73
2022/06/30 09:39:05;;;;;;;5.90;3.05;;;29.60;80.40;;;;;;4905929;29;20055;-72
2022/06/30 09:41:35;;;;;;;6.85;3.30;;;29.50;79.80;;;;;;4905638;29;20036;-74
2022/06/30 09:44:06;;;;;;;4.70;3.38;;;29.30;80.10;;;;;;4904483;29;20331;-74
2022/06/30 09:46:36;;;;;;;6.03;3.10;;;29.40;80.70;;;;;;4905937;29;20044;-72
2022/06/30 09:49:05;;;;;;;4.30;2.83;;;29.40;79.70;;;;;;4924201;29;20036;-75
2022/06/30 09:51:31;;;;;;;6.35;3.05;;;29.60;79.00;;;;;;4924933;29;20024;-74
2022/06/30 09:54:05;;;;;;;9.32;3.10;;;29.50;77.90;;;;;;4890986;29;20033;-74
2022/06/30 09:56:31;;;;;;;6.90;2.70;;;29.50;78.30;;;;;;4907270;29;20045;-75
2022/06/30 09:58:57;;;;;;;5.28;3.10;;;29.70;79.00;;;;;;4924213;29;20103;-75
2022/06/30 10:01:23;;;;;;;5.38;3.00;;;29.90;78.50;;;;;;4903243;29;20049;-75
2022/06/30 10:03:59;;;;;;;4.70;2.75;;;30.00;77.40;;;;;;4906782;29;20039;-76
2022/06/30 10:06:25;;;;;;;8.10;2.88;;;30.00;75.90;;;;;;4908711;29;20340;-76
2022/06/30 10:08:55;;;;;;;7.47;2.78;;;30.00;77.30;;;;;;4906272;29;20035;-71
2022/06/30 10:11:22;;;;;;;6.85;3.22;;;29.90;77.30;;;;;;4888959;29;20109;-71
2022/06/30 10:13:48;;;;;;;5.55;2.97;;;30.00;77.50;;;;;;4889378;29;20104;-71
2022/06/30 10:16:15;;;;;;;6.93;2.60;;;30.10;77.20;;;;;;4897410;29;20052;-70
2022/06/30 10:18:41;;;;;;;7.07;2.50;;;30.20;74.50;;;;;;4907837;29;20315;-71
2022/06/30 10:21:10;;;;;;;6.15;2.65;;;30.10;75.00;;;;;;4907604;29;20089;-74
2022/06/30 10:23:37;;;;;;;4.80;2.50;;;30.30;72.80;;;;;;4908346;29;20048;-72
2022/06/30 10:26:04;;;;;;;7.57;3.00;;;30.30;73.00;;;;;;4907708;29;20032;-71
2022/06/30 10:28:30;;;;;;;7.60;2.83;;;30.30;74.00;;;;;;4908460;29;20025;-71
2022/06/30 10:31:05;;;;;;;9.95;2.67;;;30.20;74.00;;;;;;4890706;29;20501;-72
2022/06/30 10:33:42;;;;;;;8.32;2.35;;;30.30;74.10;;;;;;4889333;29;20037;-71
2022/06/30 10:36:25;;;;;;;4.95;2.70;;;30.50;73.50;;;;;;4888797;29;20037;-71
2022/06/30 10:39:00;;;;;;;5.35;2.60;;;30.40;71.80;;;;;;4889080;29;20090;-71
2022/06/30 10:41:26;;;;;;;5.22;2.40;;;30.40;73.00;;;;;;4905572;29;20040;-71
2022/06/30 10:44:04;;;;;;;4.35;2.28;;;30.50;72.80;;;;;;4907717;29;20095;-73
2022/06/30 10:46:31;;;;;;;5.63;2.30;;;30.50;71.80;;;;;;4907509;29;20044;-73
2022/06/30 10:48:57;;;;;;;6.00;2.38;;;30.50;71.10;;;;;;4907446;29;20195;-72
2022/06/30 10:51:24;;;;;;;3.78;2.10;;;30.60;69.50;;;;;;4907476;29;20047;-73
2022/06/30 10:54:00;;;;;;;7.45;2.35;;;30.40;69.40;;;;;;4907865;29;20326;-73
2022/06/30 10:56:54;;;;;;;5.05;2.08;;;30.50;68.30;;;;;;4907755;29;20036;-73
2022/06/30 10:59:30;;;;;;;5.55;2.15;;;30.70;68.30;;;;;;4901039;29;20039;-74
2022/06/30 11:02:10;;;;;;;4.78;2.25;;;30.80;68.50;;;;;;4925363;29;20060;-74
2022/06/30 11:04:37;;;;;;;6.88;2.33;;;30.90;68.60;;;;;;4926416;29;20060;-76
2022/06/30 11:07:19;;;;;;;4.30;2.15;;;31.00;68.80;;;;;;4926314;29;20060;-75
2022/06/30 11:09:47;;;;;;;5.50;2.38;;;31.10;67.00;;;;;;4926357;29;20028;-74
2022/06/30 11:12:15;;;;;;;4.40;2.25;;;31.10;67.10;;;;;;4909000;29;20040;-75
2022/06/30 11:14:49;;;;;;;4.47;2.30;;;31.30;66.60;;;;;;4926090;29;20076;-75
2022/06/30 11:17:17;;;;;;;7.75;3.00;;;31.00;67.10;;;;;;4924724;29;20059;-74
2022/06/30 11:19:44;;;;;;;6.68;2.30;;;31.20;65.90;;;;;;4926103;29;20083;-75
2022/06/30 11:22:15;;;;;;;4.88;2.00;;;31.30;67.50;;;;;;4925408;29;20104;-75
2022/06/30 11:24:43;;;;;;;4.18;2.20;;;31.40;66.80;;;;;;4926061;29;20285;-74
2022/06/30 11:27:18;;;;;;;5.47;2.40;;;31.60;65.30;;;;;;4925379;29;20047;-73
2022/06/30 11:29:48;;;;;;;4.85;2.30;;;31.90;65.60;;;;;;4926246;29;20301;-72
2022/06/30 11:32:14;;;;;;;4.63;1.80;;;32.00;65.20;;;;;;4915304;29;20044;-68
2022/06/30 11:34:41;;;;;;;6.40;2.10;;;32.20;64.70;;;;;;4906627;29;20040;-75
2022/06/30 11:37:07;;;;;;;6.13;2.15;;;32.20;63.40;;;;;;4906125;29;20040;-74
2022/06/30 11:39:33;;;;;;;6.30;2.20;;;32.80;62.80;;;;;;4906771;29;20054;-74
2022/06/30 11:42:01;;;;;;;4.55;2.38;;;33.40;62.40;;;;;;4890116;29;20105;-72
2022/06/30 11:44:34;;;;;;;2.90;2.13;;;33.70;61.00;;;;;;4906669;29;20089;-75
2022/06/30 11:47:04;;;;;;;8.20;2.00;;;34.50;60.60;;;;;;4905911;29;20238;-75
2022/06/30 11:49:44;;;;;;;4.78;2.00;;;35.30;60.50;;;;;;4906959;29;20028;-74
2022/06/30 11:52:15;;;;;;;4.88;2.25;;;35.80;58.50;;;;;;4906295;29;20092;-77
2022/06/30 11:54:55;;;;;;;3.75;1.60;;;36.70;57.40;;;;;;4906544;29;20100;-74
2022/06/30 11:57:38;;;;;;;5.00;1.80;;;37.80;57.00;;;;;;4913625;29;20087;-75
2022/06/30 12:00:14;;;;;;;3.97;1.60;;;38.80;54.80;;;;;;4924758;29;20040;-73
2022/06/30 12:02:42;;;;;;;5.18;1.88;;;39.40;54.40;;;;;;4924555;29;20107;-74
2022/06/30 12:05:10;;;;;;;4.30;1.50;;;40.10;54.00;;;;;;4908258;29;20044;-75
2022/06/30 12:07:37;;;;;;;4.65;1.40;;;40.50;52.10;;;;;;4925196;29;20330;-74
2022/06/30 12:10:05;;;;;;;4.35;1.70;;;40.80;51.00;;;;;;4924563;29;20040;-76
2022/06/30 12:12:32;;;;;;;2.42;1.70;;;41.20;51.10;;;;;;4908382;29;20016;-75
2022/06/30 12:15:05;;;;;;;3.55;1.63;;;41.90;51.20;;;;;;4925246;29;20107;-76
2022/06/30 12:17:34;;;;;;;3.05;1.70;;;42.70;50.80;;;;;;4924822;29;20326;-76
2022/06/30 12:20:00;;;;;;;4.80;2.17;;;43.50;49.70;;;;;;4925068;29;20028;-76
2022/06/30 12:22:26;;;;;;;3.50;1.50;;;42.90;49.50;;;;;;4924214;29;20036;-76
2022/06/30 12:24:53;;;;;;;2.80;1.60;;;42.20;49.60;;;;;;4924582;29;20315;-74
2022/06/30 12:27:32;;;;;;;4.57;1.75;;;41.10;50.80;;;;;;4923955;29;20107;-75
2022/06/30 12:30:06;;;;;;;3.28;1.83;;;39.90;52.30;;;;;;4921532;29;20035;-76
2022/06/30 12:32:35;;;;;;;4.22;1.90;;;40.90;51.30;;;;;;4931508;29;20044;-73
2022/06/30 12:35:07;;;;;;;7.22;2.28;;;40.50;51.60;;;;;;4907347;29;20061;-73
2022/06/30 12:37:41;;;;;;;5.60;2.10;;;41.10;52.10;;;;;;4907714;29;20043;-73
2022/06/30 12:40:10;;;;;;;4.18;2.00;;;42.30;50.60;;;;;;4907101;29;20024;-76
2022/06/30 12:42:45;;;;;;;3.90;2.03;;;43.70;49.20;;;;;;4907588;29;20054;-75
2022/06/30 12:45:34;;;;;;;5.30;2.00;;;45.00;47.70;;;;;;4906095;29;20087;-74
2022/06/30 12:48:05;;;;;;;3.47;1.70;;;45.70;47.10;;;;;;4907313;29;20162;-76
2022/06/30 12:50:32;;;;;;;4.78;1.73;;;46.30;46.80;;;;;;4907564;29;20058;-75
2022/06/30 12:53:20;;;;;;;3.05;1.40;;;47.10;45.90;;;;;;4891832;29;20039;-76
2022/06/30 12:56:00;;;;;;;3.88;1.90;;;47.60;44.70;;;;;;4923950;29;20036;-73
2022/06/30 12:58:40;;;;;;;4.47;1.80;;;47.90;44.60;;;;;;4923604;29;20044;-74
2022/06/30 13:01:06;;;;;;;3.90;1.52;;;48.90;44.10;;;;;;4905629;29;20271;-74
2022/06/30 13:03:32;;;;;;;4.97;1.93;;;48.30;44.00;;;;;;4924154;29;20051;-75
2022/06/30 13:05:59;;;;;;;3.37;1.67;;;49.40;43.50;;;;;;4923916;29;20100;-74
2022/06/30 13:08:25;;;;;;;3.67;1.50;;;50.20;43.00;;;;;;4924084;29;20039;-76
2022/06/30 13:11:06;;;;;;;4.23;1.70;;;49.60;41.70;;;;;;4924429;29;20036;-77
2022/06/30 13:13:32;;;;;;;5.40;1.77;;;48.60;43.00;;;;;;4923254;29;20028;-74
2022/06/30 13:15:57;;;;;;;3.90;1.50;;;48.80;42.70;;;;;;4923737;29;20309;-76
2022/06/30 13:18:23;;;;;;;4.10;1.60;;;48.00;42.80;;;;;;4924048;29;20569;-74
2022/06/30 13:20:49;;;;;;;4.93;1.33;;;48.30;42.70;;;;;;4924188;29;20028;-75
2022/06/30 13:23:15;;;;;;;2.85;1.20;;;49.00;42.40;;;;;;4917224;29;20031;-76
2022/06/30 13:25:41;;;;;;;4.07;1.57;;;48.50;42.20;;;;;;4906952;29;20353;-75
2022/06/30 13:28:06;;;;;;;3.27;1.63;;;48.40;42.20;;;;;;4923643;29;20468;-75
2022/06/30 13:30:32;;;;;;;3.93;1.37;;;49.20;42.50;;;;;;4907021;29;20036;-75
2022/06/30 13:32:58;;;;;;;3.22;1.40;;;49.40;41.60;;;;;;4924185;29;20067;-75
2022/06/30 13:35:24;;;;;;;3.03;1.83;;;48.50;42.40;;;;;;4891556;29;20270;-75
2022/06/30 13:37:49;;;;;;;3.10;1.67;;;48.30;42.00;;;;;;4925879;29;20070;-76
2022/06/30 13:40:15;;;;;;;4.33;1.60;;;48.80;42.60;;;;;;4927681;29;20099;-78
2022/06/30 13:42:41;;;;;;;4.30;1.63;;;49.90;42.00;;;;;;4928035;29;20038;-74
2022/06/30 13:45:07;;;;;;;3.63;1.70;;;51.20;41.60;;;;;;4926945;29;20039;-76
2022/06/30 13:47:33;;;;;;;4.45;1.52;;;51.50;40.80;;;;;;4927595;29;20032;-77
2022/06/30 13:49:58;;;;;;;3.97;1.50;;;51.10;40.30;;;;;;4928448;29;20237;-75
2022/06/30 13:52:24;;;;;;;4.20;1.60;;;48.90;40.80;;;;;;4895342;29;20909;-75
2022/06/30 13:54:53;;;;;;;3.87;1.80;;;48.20;41.90;;;;;;4927935;29;20259;-77
2022/06/30 13:57:21;;;;;;;4.55;1.80;;;47.50;42.40;;;;;;4914519;29;20059;-74
2022/06/30 13:59:47;;;;;;;3.45;1.60;;;46.10;43.00;;;;;;4930993;29;20024;-77
2022/06/30 14:02:42;;;;;;;;;;;45.80;44.70;;;;;;4923102;29;20047;-81
2022/06/30 14:05:08;;;;;;;3.95;2.00;;;45.60;43.80;;;;;;4954355;29;19949;-75
2022/06/30 14:07:35;;;;;;;4.95;1.83;;;44.60;44.40;;;;;;4954324;29;20031;-77
2022/06/30 14:10:02;;;;;;;6.03;2.30;;;43.30;45.20;;;;;;4953769;29;20257;-74
2022/06/30 14:12:28;;;;;;;4.20;2.13;;;41.40;46.70;;;;;;4952535;29;20055;-76
2022/06/30 14:14:54;;;;;;;4.03;2.05;;;40.20;47.90;;;;;;4951927;29;20030;-74
2022/06/30 14:17:20;;;;;;;5.93;2.15;;;39.00;49.20;;;;;;4929487;29;20040;-77
2022/06/30 14:19:49;;;;;;;3.58;1.83;;;38.50;50.50;;;;;;4946265;29;20051;-75
2022/06/30 14:22:15;;;;;;;4.50;2.08;;;37.90;51.00;;;;;;4945699;29;20095;-75
2022/06/30 14:24:42;;;;;;;4.55;2.42;;;37.90;51.50;;;;;;4908993;29;20040;-76
2022/06/30 14:27:07;;;;;;;3.72;2.00;;;37.30;51.50;;;;;;4907609;29;20049;-78
2022/06/30 14:29:33;;;;;;;5.72;2.50;;;37.20;52.20;;;;;;4893857;29;20056;-76
2022/06/30 14:31:59;;;;;;;4.82;2.33;;;37.00;52.60;;;;;;4926497;29;20421;-78
2022/06/30 14:34:25;;;;;;;5.15;2.00;;;36.70;53.00;;;;;;4926885;29;20091;-75
2022/06/30 14:36:51;;;;;;;5.20;2.65;;;36.30;53.90;;;;;;4927166;29;20040;-78
2022/06/30 14:39:17;;;;;;;5.95;2.72;;;35.80;53.20;;;;;;4926304;29;20091;-74
2022/06/30 14:44:32;;;;;;;4.47;2.10;;;35.20;54.70;;;;;;4925917;29;20040;-77
2022/06/30 14:46:58;;;;;;;5.22;2.63;;;34.70;55.10;;;;;;4922989;29;20142;-74
2022/06/30 14:49:27;;;;;;;5.50;2.42;;;34.60;55.90;;;;;;4926227;29;20302;-75
2022/06/30 14:51:53;;;;;;;5.75;2.67;;;34.40;56.00;;;;;;4927254;29;20028;-78
2022/06/30 14:54:19;;;;;;;7.00;2.80;;;34.10;55.90;;;;;;4928173;29;20032;-78
2022/06/30 14:56:45;;;;;;;5.50;2.60;;;33.80;56.70;;;;;;4927382;29;20028;-76
2022/06/30 14:59:11;;;;;;;6.18;2.65;;;33.70;57.30;;;;;;4926885;29;20210;-78
2022/06/30 15:01:37;;;;;;;6.95;3.10;;;33.50;57.70;;;;;;4920478;29;20060;-74
2022/06/30 15:04:03;;;;;;;4.43;2.40;;;33.30;57.50;;;;;;4926977;29;20036;-74
2022/06/30 15:06:28;;;;;;;5.80;2.42;;;33.20;58.20;;;;;;4926261;29;20123;-78
2022/06/30 15:08:54;;;;;;;6.35;2.40;;;33.00;58.20;;;;;;4926348;29;20239;-76
2022/06/30 15:11:20;;;;;;;5.30;2.45;;;32.80;58.10;;;;;;4926178;29;20056;-74
2022/06/30 15:13:47;;;;;;;4.35;2.45;;;32.70;59.30;;;;;;4909862;29;20032;-76
2022/06/30 15:16:13;;;;;;;3.92;2.67;;;32.40;59.80;;;;;;4920986;29;20044;-75
2022/06/30 15:18:40;;;;;;;6.32;2.70;;;32.40;60.20;;;;;;4926044;29;20038;-77
2022/06/30 15:24:10;;;;;;;7.60;3.17;;;32.10;61.20;;;;;;4909056;29;20386;-75
2022/06/30 15:26:41;;;;;;;7.07;3.45;;;32.00;61.00;;;;;;4893859;29;20341;-77
2022/06/30 15:29:08;;;;;;;7.43;3.10;;;31.80;62.60;;;;;;4925877;29;20039;-75
2022/06/30 15:31:39;;;;;;;8.60;3.25;;;31.70;65.20;;;;;;4923769;29;20039;-75
2022/06/30 15:34:06;;;;;;;6.38;3.13;;;31.60;65.30;;;;;;4905827;29;20111;-76
2022/06/30 15:36:32;;;;;;;6.93;3.17;;;31.20;67.40;;;;;;4925570;29;20063;-77
2022/06/30 15:38:59;;;;;;;6.90;3.10;;;30.90;67.00;;;;;;4925628;29;20072;-78
2022/06/30 15:41:27;;;;;;;5.18;3.28;;;30.60;68.60;;;;;;4908583;29;20075;-75
2022/06/30 15:43:59;;;;;;;6.00;3.28;;;30.30;69.90;;;;;;4925494;29;20027;-76
2022/06/30 15:46:26;;;;;;;5.97;3.30;;;30.00;71.20;;;;;;4924677;29;20064;-76
2022/06/30 15:48:52;;;;;;;5.97;3.25;;;29.40;72.50;;;;;;4920022;29;20036;-77
2022/06/30 15:51:17;;;;;;;6.03;3.83;;;29.00;73.30;;;;;;4924822;29;20028;-73
2022/06/30 15:53:43;;;;;;;7.60;3.15;;;28.70;74.70;;;;;;4925583;29;20040;-74
2022/06/30 15:56:12;;;;;;;8.32;3.85;;;28.80;75.20;;;;;;4907777;29;20087;-75
2022/06/30 15:58:38;;;;;;;6.68;3.80;;;28.90;74.90;;;;;;4925347;29;20298;-74
2022/06/30 16:01:07;;;;;;;8.35;4.50;;;29.00;75.70;;;;;;4924838;29;20054;-74
2022/06/30 16:03:34;;;;;;;9.07;4.30;;;28.90;82.10;;;;;;4920698;29;20044;-74
2022/06/30 16:06:00;;;;;;;6.20;4.03;;;28.70;81.00;;;;;;4925075;29;20044;-73
2022/06/30 16:08:27;;;;;;;7.97;3.63;;;28.60;81.70;;;;;;4925079;29;20051;-73
2022/06/30 16:10:53;;;;;;;6.78;3.55;;;28.40;79.20;;;;;;4925214;29;20600;-73
2022/06/30 16:13:20;;;;;;;5.20;3.50;;;28.30;80.10;;;;;;4925158;29;20040;-74
2022/06/30 16:15:46;;;;;;;6.43;3.60;;;28.40;80.30;;;;;;4924667;29;20140;-75
2022/06/30 16:18:13;;;;;;;5.80;3.78;;;28.50;80.40;;;;;;4924537;29;20187;-74
2022/06/30 16:20:40;;;;;;;5.95;3.55;;;28.40;79.70;;;;;;4899705;29;20191;-75
2022/06/30 16:23:05;;;;;;;7.70;3.72;;;28.20;81.10;;;;;;4901771;29;20077;-74
2022/06/30 16:25:33;;;;;;;9.40;3.70;;;28.00;82.50;;;;;;4889163;29;20041;-74
2022/06/30 16:28:03;;;;;;;9.43;4.15;;;27.80;83.60;;;;;;4901685;29;20063;-79
2022/06/30 16:30:29;;;;;;;8.68;4.57;;;27.60;85.40;;;;;;4907195;29;20230;-73
2022/06/30 16:32:55;;;;;;;12.32;4.38;;;27.40;86.80;;;;;;4924871;29;20024;-73
2022/06/30 16:35:21;;;;;;;10.50;4.75;;;27.30;86.90;;;;;;4924475;29;20051;-72
2022/06/30 16:37:47;;;;;;;6.68;4.40;;;27.10;88.30;;;;;;4924553;29;20044;-75
2022/06/30 16:40:14;;;;;;;11.10;4.60;;;27.10;89.20;;;;;;4907234;29;20043;-75
2022/06/30 16:42:41;;;;;;;9.80;5.05;;;26.90;90.20;;;;;;4925135;29;20099;-74
2022/06/30 16:45:08;;;;;;;7.70;4.20;;;26.80;90.50;;;;;;4923994;29;20031;-74
2022/06/30 16:47:34;;;;;;;6.00;4.28;;;26.70;90.40;;;;;;4924372;29;20233;-73
2022/06/30 16:50:01;;;;;;;6.80;4.47;;;26.60;90.30;;;;;;4925062;29;20136;-75
2022/06/30 16:52:26;;;;;;;10.05;4.90;;;26.50;90.50;;;;;;4924454;29;20336;-73
2022/06/30 16:54:52;;;;;;;8.82;4.57;;;26.60;90.70;;;;;;4907744;29;20091;-72
2022/06/30 16:57:18;;;;;;;7.18;4.50;;;26.80;90.40;;;;;;4924357;29;20095;-73
2022/06/30 16:59:44;;;;;;;7.07;4.53;;;26.90;90.20;;;;;;4924784;29;20043;-74
2022/06/30 17:02:11;;;;;;;7.55;5.18;;;27.00;90.20;;;;;;4923197;29;20055;-75
2022/06/30 17:04:37;;;;;;;6.72;4.63;;;27.20;89.80;;;;;;4924702;29;20028;-75
2022/06/30 17:07:05;;;;;;;7.90;4.82;;;27.40;89.60;;;;;;4924665;29;20046;-75
2022/06/30 17:09:31;;;;;;;7.30;4.85;;;27.40;89.60;;;;;;4924170;29;20286;-74
2022/06/30 17:11:56;;;;;;;6.50;3.88;;;27.60;88.40;;;;;;4925648;29;20352;-74
2022/06/30 17:14:25;;;;;;;8.65;4.47;;;27.90;87.50;;;;;;4928011;29;20036;-72
2022/06/30 17:16:51;;;;;;;8.05;4.30;;;28.30;86.90;;;;;;4927586;29;20048;-74
2022/06/30 17:19:18;;;;;;;9.32;4.97;;;28.60;85.00;;;;;;4946736;29;20390;-73
2022/06/30 17:21:45;;;;;;;8.68;4.55;;;28.90;84.00;;;;;;4938149;29;20214;-75
2022/06/30 17:24:12;;;;;;;7.75;4.15;;;29.10;82.20;;;;;;4928460;29;20020;-74
2022/06/30 17:26:38;;;;;;;5.70;3.53;;;29.80;81.20;;;;;;4928284;29;20141;-72
2022/06/30 17:29:06;;;;;;;5.00;3.75;;;29.80;80.40;;;;;;4911348;29;20024;-74
2022/06/30 17:31:34;;;;;;;6.63;3.38;;;30.30;79.00;;;;;;4926866;29;20381;-73
2022/06/30 17:34:09;;;;;;;6.13;3.17;;;30.50;78.60;;;;;;4912137;29;20027;-72
2022/06/30 17:36:35;;;;;;;6.80;3.75;;;30.00;78.20;;;;;;4927684;29;20096;-74
2022/06/30 17:39:02;;;;;;;8.60;3.92;;;29.50;81.30;;;;;;4927934;29;20032;-72
2022/06/30 17:41:27;;;;;;;8.10;4.28;;;28.90;82.70;;;;;;4927674;29;20055;-72
2022/06/30 17:43:54;;;;;;;5.22;3.15;;;28.80;83.40;;;;;;4927719;29;20028;-73
2022/06/30 17:46:19;;;;;;;6.50;3.55;;;28.40;82.00;;;;;;4926644;29;20054;-74
2022/06/30 17:48:45;;;;;;;4.82;2.80;;;28.10;82.40;;;;;;4927946;29;20059;-72
2022/06/30 17:51:11;;;;;;;5.85;3.17;;;27.90;82.70;;;;;;4927914;29;20055;-71
2022/06/30 17:53:37;;;;;;;6.85;3.40;;;27.70;83.20;;;;;;4927946;29;20374;-72
2022/06/30 17:56:03;;;;;;;4.93;2.47;;;27.50;83.30;;;;;;4910638;29;20226;-72
2022/06/30 17:58:29;;;;;;;3.90;2.45;;;27.00;84.50;;;;;;4926867;29;20083;-73
2022/06/30 18:00:55;;;;;;;6.63;2.67;;;26.90;82.40;;;;;;4927044;29;20036;-73
2022/06/30 18:03:21;;;;;;;6.05;2.08;;;26.90;81.90;;;;;;4926863;29;20083;-73
2022/06/30 18:05:49;;;;;;;3.85;1.70;;;26.70;79.00;;;;;;4927246;29;20199;-72